sensor_id;sensor_type;location;lat;lon;timestamp;P1;durP1;ratioP1;P2;durP2;ratioP2
22470;SDS011;11402;51.374;6.594;2022-12-29T00:01:28;3.22;;;1.70;;
22470;SDS011;11402;51.374;6.594;2022-12-29T00:03:54;2.38;;;1.70;;
22470;SDS011;11402;51.374;6.594;2022-12-29T00:06:20;2.15;;;1.60;;
22470;SDS011;11402;51.374;6.594;2022-12-29T00:08:45;2.38;;;1.50;;
22470;SDS011;11402;51.374;6.594;2022-12-29T00:11:12;3.30;;;1.10;;
22470;SDS011;11402;51.374;6.594;2022-12-29T00:13:39;2.92;;;0.98;;
22470;SDS011;11402;51.374;6.594;2022-12-29T00:16:24;1.10;;;0.80;;
22470;SDS011;11402;51.374;6.594;2022-12-29T00:18:50;3.13;;;0.70;;
22470;SDS011;11402;51.374;6.594;2022-12-29T00:21:17;4.55;;;2.65;;
22470;SDS011;11402;51.374;6.594;2022-12-29T00:24:03;3.53;;;1.83;;
22470;SDS011;11402;51.374;6.594;2022-12-29T00:27:14;4.15;;;2.47;;
22470;SDS011;11402;51.374;6.594;2022-12-29T00:29:57;1.77;;;1.35;;
22470;SDS011;11402;51.374;6.594;2022-12-29T00:32:42;2.15;;;1.20;;
22470;SDS011;11402;51.374;6.594;2022-12-29T00:35:29;1.70;;;1.10;;
22470;SDS011;11402;51.374;6.594;2022-12-29T00:37:59;4.00;;;1.75;;
22470;SDS011;11402;51.374;6.594;2022-12-29T00:40:50;2.47;;;1.90;;
22470;SDS011;11402;51.374;6.594;2022-12-29T00:43:35;2.60;;;1.80;;
22470;SDS011;11402;51.374;6.594;2022-12-29T00:46:19;2.55;;;1.58;;
22470;SDS011;11402;51.374;6.594;2022-12-29T00:48:45;2.72;;;1.10;;
22470;SDS011;11402;51.374;6.594;2022-12-29T00:51:29;3.40;;;1.00;;
22470;SDS011;11402;51.374;6.594;2022-12-29T00:53:55;1.10;;;0.80;;
22470;SDS011;11402;51.374;6.594;2022-12-29T00:56:20;0.88;;;0.60;;
22470;SDS011;11402;51.374;6.594;2022-12-29T00:58:46;0.70;;;0.68;;
22470;SDS011;11402;51.374;6.594;2022-12-29T01:01:11;0.98;;;0.70;;
22470;SDS011;11402;51.374;6.594;2022-12-29T01:03:37;2.90;;;1.38;;
22470;SDS011;11402;51.374;6.594;2022-12-29T01:06:03;0.70;;;0.70;;
22470;SDS011;11402;51.374;6.594;2022-12-29T01:08:30;1.10;;;0.77;;
22470;SDS011;11402;51.374;6.594;2022-12-29T01:11:00;0.80;;;0.70;;
22470;SDS011;11402;51.374;6.594;2022-12-29T01:13:27;0.68;;;0.68;;
22470;SDS011;11402;51.374;6.594;2022-12-29T01:15:53;0.90;;;0.60;;
22470;SDS011;11402;51.374;6.594;2022-12-29T01:18:19;0.77;;;0.60;;
22470;SDS011;11402;51.374;6.594;2022-12-29T01:20:45;0.75;;;0.52;;
22470;SDS011;11402;51.374;6.594;2022-12-29T01:23:11;1.15;;;0.50;;
22470;SDS011;11402;51.374;6.594;2022-12-29T01:25:37;1.55;;;0.50;;
22470;SDS011;11402;51.374;6.594;2022-12-29T01:28:02;0.43;;;0.30;;
22470;SDS011;11402;51.374;6.594;2022-12-29T01:30:28;0.63;;;0.60;;
22470;SDS011;11402;51.374;6.594;2022-12-29T01:32:54;0.60;;;0.50;;
22470;SDS011;11402;51.374;6.594;2022-12-29T01:35:19;2.42;;;1.42;;
22470;SDS011;11402;51.374;6.594;2022-12-29T01:37:45;1.88;;;1.30;;
22470;SDS011;11402;51.374;6.594;2022-12-29T01:40:11;2.47;;;1.52;;
22470;SDS011;11402;51.374;6.594;2022-12-29T01:42:37;0.60;;;0.60;;
22470;SDS011;11402;51.374;6.594;2022-12-29T01:45:04;1.30;;;0.60;;
22470;SDS011;11402;51.374;6.594;2022-12-29T01:47:35;1.35;;;1.13;;
22470;SDS011;11402;51.374;6.594;2022-12-29T01:50:09;1.35;;;0.63;;
22470;SDS011;11402;51.374;6.594;2022-12-29T01:52:48;1.38;;;1.10;;
22470;SDS011;11402;51.374;6.594;2022-12-29T01:55:20;1.17;;;0.60;;
22470;SDS011;11402;51.374;6.594;2022-12-29T01:57:47;1.00;;;0.43;;
22470;SDS011;11402;51.374;6.594;2022-12-29T02:00:16;0.70;;;0.50;;
22470;SDS011;11402;51.374;6.594;2022-12-29T02:02:43;1.20;;;0.60;;
22470;SDS011;11402;51.374;6.594;2022-12-29T02:05:14;0.52;;;0.43;;
22470;SDS011;11402;51.374;6.594;2022-12-29T02:07:48;1.17;;;0.70;;
22470;SDS011;11402;51.374;6.594;2022-12-29T02:10:15;1.25;;;0.60;;
22470;SDS011;11402;51.374;6.594;2022-12-29T02:12:40;0.80;;;0.43;;
22470;SDS011;11402;51.374;6.594;2022-12-29T02:15:06;1.33;;;0.60;;
22470;SDS011;11402;51.374;6.594;2022-12-29T02:17:44;4.03;;;0.70;;
22470;SDS011;11402;51.374;6.594;2022-12-29T02:28:53;2.25;;;0.80;;
22470;SDS011;11402;51.374;6.594;2022-12-29T02:31:31;0.65;;;0.52;;
22470;SDS011;11402;51.374;6.594;2022-12-29T02:34:09;1.98;;;0.60;;
22470;SDS011;11402;51.374;6.594;2022-12-29T02:37:00;2.00;;;0.68;;
22470;SDS011;11402;51.374;6.594;2022-12-29T02:42:22;2.10;;;0.90;;
22470;SDS011;11402;51.374;6.594;2022-12-29T02:45:19;2.83;;;0.80;;
22470;SDS011;11402;51.374;6.594;2022-12-29T02:50:37;2.38;;;0.82;;
22470;SDS011;11402;51.374;6.594;2022-12-29T02:53:12;3.65;;;0.82;;
22470;SDS011;11402;51.374;6.594;2022-12-29T02:55:47;2.58;;;0.80;;
22470;SDS011;11402;51.374;6.594;2022-12-29T03:00:50;1.10;;;0.68;;
22470;SDS011;11402;51.374;6.594;2022-12-29T03:03:26;4.05;;;0.95;;
22470;SDS011;11402;51.374;6.594;2022-12-29T03:11:48;3.47;;;0.90;;
22470;SDS011;11402;51.374;6.594;2022-12-29T03:17:56;1.20;;;0.60;;
22470;SDS011;11402;51.374;6.594;2022-12-29T03:20:31;1.33;;;0.88;;
22470;SDS011;11402;51.374;6.594;2022-12-29T03:23:06;2.95;;;0.85;;
22470;SDS011;11402;51.374;6.594;2022-12-29T03:25:36;1.23;;;0.70;;
22470;SDS011;11402;51.374;6.594;2022-12-29T03:28:07;3.38;;;0.77;;
22470;SDS011;11402;51.374;6.594;2022-12-29T03:30:38;3.25;;;0.80;;
22470;SDS011;11402;51.374;6.594;2022-12-29T03:33:07;1.58;;;0.70;;
22470;SDS011;11402;51.374;6.594;2022-12-29T03:35:37;3.13;;;1.05;;
22470;SDS011;11402;51.374;6.594;2022-12-29T03:38:10;0.95;;;0.40;;
22470;SDS011;11402;51.374;6.594;2022-12-29T03:40:40;0.95;;;0.55;;
22470;SDS011;11402;51.374;6.594;2022-12-29T03:43:10;2.63;;;0.75;;
22470;SDS011;11402;51.374;6.594;2022-12-29T03:45:37;1.33;;;0.60;;
22470;SDS011;11402;51.374;6.594;2022-12-29T03:48:03;1.00;;;0.50;;
22470;SDS011;11402;51.374;6.594;2022-12-29T03:50:29;0.85;;;0.50;;
22470;SDS011;11402;51.374;6.594;2022-12-29T03:52:55;0.95;;;0.50;;
22470;SDS011;11402;51.374;6.594;2022-12-29T03:55:21;1.23;;;0.65;;
22470;SDS011;11402;51.374;6.594;2022-12-29T03:57:46;2.22;;;0.80;;
22470;SDS011;11402;51.374;6.594;2022-12-29T04:00:12;1.75;;;0.60;;
22470;SDS011;11402;51.374;6.594;2022-12-29T04:02:38;1.85;;;0.70;;
22470;SDS011;11402;51.374;6.594;2022-12-29T04:05:04;1.27;;;0.60;;
22470;SDS011;11402;51.374;6.594;2022-12-29T04:07:29;1.70;;;0.50;;
22470;SDS011;11402;51.374;6.594;2022-12-29T04:09:55;1.15;;;0.60;;
22470;SDS011;11402;51.374;6.594;2022-12-29T04:12:20;1.17;;;0.60;;
22470;SDS011;11402;51.374;6.594;2022-12-29T04:14:46;1.25;;;0.50;;
22470;SDS011;11402;51.374;6.594;2022-12-29T04:17:12;0.77;;;0.50;;
22470;SDS011;11402;51.374;6.594;2022-12-29T04:19:37;1.35;;;0.80;;
22470;SDS011;11402;51.374;6.594;2022-12-29T04:22:03;2.60;;;0.65;;
22470;SDS011;11402;51.374;6.594;2022-12-29T04:24:28;1.75;;;0.65;;
22470;SDS011;11402;51.374;6.594;2022-12-29T04:26:54;1.13;;;0.50;;
22470;SDS011;11402;51.374;6.594;2022-12-29T04:29:19;2.00;;;0.70;;
22470;SDS011;11402;51.374;6.594;2022-12-29T04:31:45;2.65;;;0.70;;
22470;SDS011;11402;51.374;6.594;2022-12-29T04:34:11;2.90;;;0.85;;
22470;SDS011;11402;51.374;6.594;2022-12-29T04:36:36;1.50;;;0.70;;
22470;SDS011;11402;51.374;6.594;2022-12-29T04:39:02;1.45;;;0.50;;
22470;SDS011;11402;51.374;6.594;2022-12-29T04:41:30;0.82;;;0.63;;
22470;SDS011;11402;51.374;6.594;2022-12-29T04:43:55;1.42;;;0.50;;
22470;SDS011;11402;51.374;6.594;2022-12-29T04:46:21;1.95;;;0.70;;
22470;SDS011;11402;51.374;6.594;2022-12-29T04:48:46;1.88;;;0.63;;
22470;SDS011;11402;51.374;6.594;2022-12-29T04:51:12;1.30;;;0.50;;
22470;SDS011;11402;51.374;6.594;2022-12-29T04:53:38;1.23;;;0.65;;
22470;SDS011;11402;51.374;6.594;2022-12-29T04:56:03;1.50;;;0.60;;
22470;SDS011;11402;51.374;6.594;2022-12-29T04:58:29;1.90;;;0.60;;
22470;SDS011;11402;51.374;6.594;2022-12-29T05:00:55;3.20;;;0.60;;
22470;SDS011;11402;51.374;6.594;2022-12-29T05:03:20;2.30;;;0.68;;
22470;SDS011;11402;51.374;6.594;2022-12-29T05:05:46;3.88;;;0.68;;
22470;SDS011;11402;51.374;6.594;2022-12-29T05:08:11;2.75;;;0.73;;
22470;SDS011;11402;51.374;6.594;2022-12-29T05:10:37;1.95;;;0.50;;
22470;SDS011;11402;51.374;6.594;2022-12-29T05:13:02;1.67;;;0.77;;
22470;SDS011;11402;51.374;6.594;2022-12-29T05:15:28;2.30;;;0.77;;
22470;SDS011;11402;51.374;6.594;2022-12-29T05:17:53;1.77;;;0.60;;
22470;SDS011;11402;51.374;6.594;2022-12-29T05:20:19;1.77;;;0.63;;
22470;SDS011;11402;51.374;6.594;2022-12-29T05:22:45;3.28;;;0.70;;
22470;SDS011;11402;51.374;6.594;2022-12-29T05:25:11;3.63;;;0.57;;
22470;SDS011;11402;51.374;6.594;2022-12-29T05:27:36;4.82;;;0.70;;
22470;SDS011;11402;51.374;6.594;2022-12-29T05:30:02;2.00;;;0.43;;
22470;SDS011;11402;51.374;6.594;2022-12-29T05:32:28;2.15;;;0.50;;
22470;SDS011;11402;51.374;6.594;2022-12-29T05:34:53;2.70;;;0.70;;
22470;SDS011;11402;51.374;6.594;2022-12-29T05:37:19;2.75;;;0.60;;
22470;SDS011;11402;51.374;6.594;2022-12-29T05:39:44;4.18;;;0.70;;
22470;SDS011;11402;51.374;6.594;2022-12-29T05:42:10;4.57;;;0.70;;
22470;SDS011;11402;51.374;6.594;2022-12-29T05:44:36;2.30;;;0.65;;
22470;SDS011;11402;51.374;6.594;2022-12-29T05:47:01;1.58;;;0.70;;
22470;SDS011;11402;51.374;6.594;2022-12-29T05:49:27;3.38;;;0.80;;
22470;SDS011;11402;51.374;6.594;2022-12-29T05:51:52;4.10;;;0.50;;
22470;SDS011;11402;51.374;6.594;2022-12-29T05:54:18;2.08;;;1.00;;
22470;SDS011;11402;51.374;6.594;2022-12-29T05:56:43;2.63;;;0.60;;
22470;SDS011;11402;51.374;6.594;2022-12-29T05:59:09;5.20;;;0.90;;
22470;SDS011;11402;51.374;6.594;2022-12-29T06:01:34;3.47;;;0.85;;
22470;SDS011;11402;51.374;6.594;2022-12-29T06:04:00;2.58;;;0.70;;
22470;SDS011;11402;51.374;6.594;2022-12-29T06:06:25;2.97;;;1.00;;
22470;SDS011;11402;51.374;6.594;2022-12-29T06:08:51;4.47;;;1.35;;
22470;SDS011;11402;51.374;6.594;2022-12-29T06:11:17;4.05;;;1.20;;
22470;SDS011;11402;51.374;6.594;2022-12-29T06:13:42;2.38;;;0.90;;
22470;SDS011;11402;51.374;6.594;2022-12-29T06:16:08;2.60;;;0.75;;
22470;SDS011;11402;51.374;6.594;2022-12-29T06:18:34;1.40;;;0.60;;
22470;SDS011;11402;51.374;6.594;2022-12-29T06:21:00;3.60;;;0.70;;
22470;SDS011;11402;51.374;6.594;2022-12-29T06:23:26;2.78;;;0.90;;
22470;SDS011;11402;51.374;6.594;2022-12-29T06:25:52;3.80;;;0.68;;
22470;SDS011;11402;51.374;6.594;2022-12-29T06:28:17;2.17;;;0.65;;
22470;SDS011;11402;51.374;6.594;2022-12-29T06:30:46;3.65;;;0.93;;
22470;SDS011;11402;51.374;6.594;2022-12-29T06:33:12;2.72;;;0.70;;
22470;SDS011;11402;51.374;6.594;2022-12-29T06:35:38;2.20;;;0.80;;
22470;SDS011;11402;51.374;6.594;2022-12-29T06:38:04;3.17;;;1.00;;
22470;SDS011;11402;51.374;6.594;2022-12-29T06:40:30;4.03;;;0.80;;
22470;SDS011;11402;51.374;6.594;2022-12-29T06:42:56;2.60;;;0.70;;
22470;SDS011;11402;51.374;6.594;2022-12-29T06:45:22;1.63;;;0.73;;
22470;SDS011;11402;51.374;6.594;2022-12-29T06:47:47;2.88;;;0.70;;
22470;SDS011;11402;51.374;6.594;2022-12-29T06:50:13;2.50;;;0.70;;
22470;SDS011;11402;51.374;6.594;2022-12-29T06:52:38;3.10;;;1.10;;
22470;SDS011;11402;51.374;6.594;2022-12-29T06:55:04;3.67;;;0.90;;
22470;SDS011;11402;51.374;6.594;2022-12-29T06:57:30;4.65;;;1.08;;
22470;SDS011;11402;51.374;6.594;2022-12-29T06:59:55;3.38;;;0.88;;
22470;SDS011;11402;51.374;6.594;2022-12-29T07:02:21;2.15;;;0.68;;
22470;SDS011;11402;51.374;6.594;2022-12-29T07:04:47;4.15;;;0.80;;
22470;SDS011;11402;51.374;6.594;2022-12-29T07:07:13;3.75;;;1.08;;
22470;SDS011;11402;51.374;6.594;2022-12-29T07:09:38;5.13;;;0.95;;
22470;SDS011;11402;51.374;6.594;2022-12-29T07:12:04;6.32;;;0.90;;
22470;SDS011;11402;51.374;6.594;2022-12-29T07:14:29;8.45;;;1.17;;
22470;SDS011;11402;51.374;6.594;2022-12-29T07:16:55;6.35;;;1.30;;
22470;SDS011;11402;51.374;6.594;2022-12-29T07:19:20;4.60;;;1.35;;
22470;SDS011;11402;51.374;6.594;2022-12-29T07:21:46;4.93;;;1.20;;
22470;SDS011;11402;51.374;6.594;2022-12-29T07:24:12;4.60;;;1.00;;
22470;SDS011;11402;51.374;6.594;2022-12-29T07:26:37;3.88;;;0.98;;
22470;SDS011;11402;51.374;6.594;2022-12-29T07:29:03;8.50;;;1.25;;
22470;SDS011;11402;51.374;6.594;2022-12-29T07:31:29;4.25;;;1.23;;
22470;SDS011;11402;51.374;6.594;2022-12-29T07:33:55;4.68;;;0.95;;
22470;SDS011;11402;51.374;6.594;2022-12-29T07:36:20;7.57;;;1.23;;
22470;SDS011;11402;51.374;6.594;2022-12-29T07:38:46;4.55;;;1.00;;
22470;SDS011;11402;51.374;6.594;2022-12-29T07:41:11;5.82;;;1.30;;
22470;SDS011;11402;51.374;6.594;2022-12-29T07:43:37;6.53;;;1.13;;
22470;SDS011;11402;51.374;6.594;2022-12-29T07:46:03;5.78;;;1.10;;
22470;SDS011;11402;51.374;6.594;2022-12-29T07:48:28;6.18;;;1.30;;
22470;SDS011;11402;51.374;6.594;2022-12-29T07:50:54;5.43;;;1.00;;
22470;SDS011;11402;51.374;6.594;2022-12-29T07:53:20;5.07;;;1.17;;
22470;SDS011;11402;51.374;6.594;2022-12-29T07:55:45;6.90;;;1.40;;
22470;SDS011;11402;51.374;6.594;2022-12-29T07:58:11;8.43;;;1.27;;
22470;SDS011;11402;51.374;6.594;2022-12-29T08:00:37;7.38;;;1.60;;
22470;SDS011;11402;51.374;6.594;2022-12-29T08:03:03;7.95;;;1.50;;
22470;SDS011;11402;51.374;6.594;2022-12-29T08:05:32;5.65;;;1.08;;
22470;SDS011;11402;51.374;6.594;2022-12-29T08:07:59;4.97;;;1.00;;
22470;SDS011;11402;51.374;6.594;2022-12-29T08:10:24;6.28;;;1.38;;
22470;SDS011;11402;51.374;6.594;2022-12-29T08:12:50;4.28;;;1.15;;
22470;SDS011;11402;51.374;6.594;2022-12-29T08:15:16;5.32;;;1.15;;
22470;SDS011;11402;51.374;6.594;2022-12-29T08:17:41;5.43;;;1.20;;
22470;SDS011;11402;51.374;6.594;2022-12-29T08:20:07;6.68;;;1.08;;
22470;SDS011;11402;51.374;6.594;2022-12-29T08:22:34;6.45;;;1.38;;
22470;SDS011;11402;51.374;6.594;2022-12-29T08:25:00;4.65;;;0.90;;
22470;SDS011;11402;51.374;6.594;2022-12-29T08:27:26;6.82;;;1.75;;
22470;SDS011;11402;51.374;6.594;2022-12-29T08:29:51;4.95;;;1.15;;
22470;SDS011;11402;51.374;6.594;2022-12-29T08:32:17;4.97;;;1.30;;
22470;SDS011;11402;51.374;6.594;2022-12-29T08:34:42;5.25;;;1.15;;
22470;SDS011;11402;51.374;6.594;2022-12-29T08:37:08;8.70;;;1.52;;
22470;SDS011;11402;51.374;6.594;2022-12-29T08:39:33;6.05;;;1.33;;
22470;SDS011;11402;51.374;6.594;2022-12-29T08:41:59;9.15;;;1.30;;
22470;SDS011;11402;51.374;6.594;2022-12-29T08:44:25;4.90;;;1.05;;
22470;SDS011;11402;51.374;6.594;2022-12-29T08:46:50;6.20;;;1.33;;
22470;SDS011;11402;51.374;6.594;2022-12-29T08:49:16;4.10;;;1.17;;
22470;SDS011;11402;51.374;6.594;2022-12-29T08:51:41;7.05;;;1.20;;
22470;SDS011;11402;51.374;6.594;2022-12-29T08:54:07;8.02;;;1.58;;
22470;SDS011;11402;51.374;6.594;2022-12-29T08:56:32;6.45;;;1.20;;
22470;SDS011;11402;51.374;6.594;2022-12-29T08:58:58;5.32;;;1.52;;
22470;SDS011;11402;51.374;6.594;2022-12-29T09:01:23;5.97;;;1.20;;
22470;SDS011;11402;51.374;6.594;2022-12-29T09:03:49;6.35;;;1.45;;
22470;SDS011;11402;51.374;6.594;2022-12-29T09:06:15;7.63;;;1.42;;
22470;SDS011;11402;51.374;6.594;2022-12-29T09:08:42;5.40;;;1.02;;
22470;SDS011;11402;51.374;6.594;2022-12-29T09:11:21;3.88;;;0.90;;
22470;SDS011;11402;51.374;6.594;2022-12-29T09:13:48;6.55;;;1.23;;
22470;SDS011;11402;51.374;6.594;2022-12-29T09:16:14;6.70;;;1.17;;
22470;SDS011;11402;51.374;6.594;2022-12-29T09:18:40;4.32;;;1.13;;
22470;SDS011;11402;51.374;6.594;2022-12-29T09:21:06;8.75;;;1.90;;
22470;SDS011;11402;51.374;6.594;2022-12-29T09:23:32;6.30;;;1.33;;
22470;SDS011;11402;51.374;6.594;2022-12-29T09:25:59;8.50;;;1.38;;
22470;SDS011;11402;51.374;6.594;2022-12-29T09:28:24;5.88;;;1.27;;
22470;SDS011;11402;51.374;6.594;2022-12-29T09:30:50;6.13;;;1.63;;
22470;SDS011;11402;51.374;6.594;2022-12-29T09:33:16;7.63;;;1.52;;
22470;SDS011;11402;51.374;6.594;2022-12-29T09:35:43;9.73;;;1.42;;
22470;SDS011;11402;51.374;6.594;2022-12-29T09:38:09;7.30;;;1.40;;
22470;SDS011;11402;51.374;6.594;2022-12-29T09:40:35;6.00;;;1.30;;
22470;SDS011;11402;51.374;6.594;2022-12-29T09:46:17;6.07;;;1.48;;
22470;SDS011;11402;51.374;6.594;2022-12-29T09:48:45;8.18;;;1.88;;
22470;SDS011;11402;51.374;6.594;2022-12-29T09:51:18;8.68;;;1.50;;
22470;SDS011;11402;51.374;6.594;2022-12-29T09:53:53;6.90;;;1.25;;
22470;SDS011;11402;51.374;6.594;2022-12-29T09:56:23;7.43;;;1.80;;
22470;SDS011;11402;51.374;6.594;2022-12-29T09:59:11;8.02;;;1.48;;
22470;SDS011;11402;51.374;6.594;2022-12-29T10:01:53;7.75;;;1.67;;
22470;SDS011;11402;51.374;6.594;2022-12-29T10:04:27;5.45;;;1.40;;
22470;SDS011;11402;51.374;6.594;2022-12-29T10:18:04;6.78;;;1.33;;
22470;SDS011;11402;51.374;6.594;2022-12-29T10:25:56;6.75;;;1.50;;
22470;SDS011;11402;51.374;6.594;2022-12-29T10:28:24;10.32;;;1.40;;
22470;SDS011;11402;51.374;6.594;2022-12-29T10:31:16;8.52;;;1.17;;
22470;SDS011;11402;51.374;6.594;2022-12-29T10:33:46;7.22;;;1.45;;
22470;SDS011;11402;51.374;6.594;2022-12-29T10:36:17;9.15;;;1.60;;
22470;SDS011;11402;51.374;6.594;2022-12-29T10:38:50;10.45;;;1.77;;
22470;SDS011;11402;51.374;6.594;2022-12-29T10:41:47;8.07;;;1.60;;
22470;SDS011;11402;51.374;6.594;2022-12-29T10:44:18;10.75;;;1.80;;
22470;SDS011;11402;51.374;6.594;2022-12-29T10:46:46;9.30;;;1.85;;
22470;SDS011;11402;51.374;6.594;2022-12-29T10:49:20;10.55;;;1.77;;
22470;SDS011;11402;51.374;6.594;2022-12-29T10:51:46;7.10;;;1.17;;
22470;SDS011;11402;51.374;6.594;2022-12-29T10:54:16;8.43;;;1.67;;
22470;SDS011;11402;51.374;6.594;2022-12-29T10:56:47;9.20;;;1.35;;
22470;SDS011;11402;51.374;6.594;2022-12-29T10:59:23;8.93;;;1.83;;
22470;SDS011;11402;51.374;6.594;2022-12-29T11:07:15;9.45;;;1.45;;
22470;SDS011;11402;51.374;6.594;2022-12-29T11:09:43;5.80;;;1.33;;
22470;SDS011;11402;51.374;6.594;2022-12-29T11:12:23;9.18;;;1.60;;
22470;SDS011;11402;51.374;6.594;2022-12-29T11:23:02;8.00;;;1.67;;
22470;SDS011;11402;51.374;6.594;2022-12-29T11:25:30;7.00;;;1.80;;
22470;SDS011;11402;51.374;6.594;2022-12-29T11:28:01;9.20;;;1.63;;
22470;SDS011;11402;51.374;6.594;2022-12-29T11:30:38;6.23;;;1.47;;
22470;SDS011;11402;51.374;6.594;2022-12-29T11:33:04;10.68;;;1.38;;
22470;SDS011;11402;51.374;6.594;2022-12-29T11:35:48;10.10;;;1.60;;
22470;SDS011;11402;51.374;6.594;2022-12-29T11:38:23;9.07;;;1.77;;
22470;SDS011;11402;51.374;6.594;2022-12-29T11:40:53;10.35;;;1.33;;
22470;SDS011;11402;51.374;6.594;2022-12-29T11:43:36;9.10;;;1.63;;
22470;SDS011;11402;51.374;6.594;2022-12-29T11:46:03;12.85;;;1.83;;
22470;SDS011;11402;51.374;6.594;2022-12-29T11:48:40;9.95;;;1.50;;
22470;SDS011;11402;51.374;6.594;2022-12-29T11:51:07;8.48;;;1.90;;
22470;SDS011;11402;51.374;6.594;2022-12-29T11:53:38;7.25;;;1.67;;
22470;SDS011;11402;51.374;6.594;2022-12-29T11:56:12;5.80;;;1.55;;
22470;SDS011;11402;51.374;6.594;2022-12-29T11:58:41;8.27;;;1.27;;
22470;SDS011;11402;51.374;6.594;2022-12-29T12:04:14;7.55;;;1.45;;
22470;SDS011;11402;51.374;6.594;2022-12-29T12:07:22;6.88;;;1.52;;
22470;SDS011;11402;51.374;6.594;2022-12-29T12:09:44;7.35;;;1.55;;
22470;SDS011;11402;51.374;6.594;2022-12-29T12:12:18;8.07;;;1.45;;
22470;SDS011;11402;51.374;6.594;2022-12-29T12:14:54;11.40;;;1.50;;
22470;SDS011;11402;51.374;6.594;2022-12-29T12:17:49;10.25;;;1.77;;
22470;SDS011;11402;51.374;6.594;2022-12-29T12:20:48;8.65;;;1.70;;
22470;SDS011;11402;51.374;6.594;2022-12-29T12:23:43;9.43;;;1.77;;
22470;SDS011;11402;51.374;6.594;2022-12-29T12:26:32;10.38;;;1.77;;
22470;SDS011;11402;51.374;6.594;2022-12-29T12:29:24;10.48;;;1.40;;
22470;SDS011;11402;51.374;6.594;2022-12-29T12:31:55;10.68;;;1.85;;
22470;SDS011;11402;51.374;6.594;2022-12-29T12:34:39;8.63;;;1.73;;
22470;SDS011;11402;51.374;6.594;2022-12-29T12:40:07;9.63;;;2.05;;
22470;SDS011;11402;51.374;6.594;2022-12-29T12:43:05;7.30;;;1.60;;
22470;SDS011;11402;51.374;6.594;2022-12-29T12:48:20;9.75;;;2.08;;
22470;SDS011;11402;51.374;6.594;2022-12-29T12:54:01;10.38;;;1.70;;
22470;SDS011;11402;51.374;6.594;2022-12-29T12:56:46;8.27;;;1.67;;
22470;SDS011;11402;51.374;6.594;2022-12-29T13:07:37;10.57;;;1.75;;
22470;SDS011;11402;51.374;6.594;2022-12-29T13:10:19;6.28;;;1.67;;
22470;SDS011;11402;51.374;6.594;2022-12-29T13:15:51;7.00;;;1.50;;
22470;SDS011;11402;51.374;6.594;2022-12-29T13:18:34;9.77;;;1.73;;
22470;SDS011;11402;51.374;6.594;2022-12-29T13:24:19;9.35;;;1.85;;
22470;SDS011;11402;51.374;6.594;2022-12-29T13:29:50;8.23;;;1.70;;
22470;SDS011;11402;51.374;6.594;2022-12-29T13:35:19;9.40;;;1.70;;
22470;SDS011;11402;51.374;6.594;2022-12-29T13:37:57;7.95;;;1.67;;
22470;SDS011;11402;51.374;6.594;2022-12-29T13:40:28;8.07;;;1.60;;
22470;SDS011;11402;51.374;6.594;2022-12-29T13:42:59;7.78;;;1.85;;
22470;SDS011;11402;51.374;6.594;2022-12-29T13:45:28;8.05;;;1.80;;
22470;SDS011;11402;51.374;6.594;2022-12-29T13:50:29;6.38;;;1.65;;
22470;SDS011;11402;51.374;6.594;2022-12-29T13:53:06;11.13;;;1.50;;
22470;SDS011;11402;51.374;6.594;2022-12-29T13:55:51;12.70;;;1.92;;
22470;SDS011;11402;51.374;6.594;2022-12-29T13:58:44;10.05;;;1.77;;
22470;SDS011;11402;51.374;6.594;2022-12-29T14:01:19;10.77;;;1.80;;
22470;SDS011;11402;51.374;6.594;2022-12-29T14:03:59;7.47;;;1.40;;
22470;SDS011;11402;51.374;6.594;2022-12-29T14:06:31;8.73;;;1.13;;
22470;SDS011;11402;51.374;6.594;2022-12-29T14:09:00;11.75;;;1.70;;
22470;SDS011;11402;51.374;6.594;2022-12-29T14:11:32;9.93;;;1.92;;
22470;SDS011;11402;51.374;6.594;2022-12-29T14:14:10;5.32;;;0.98;;
22470;SDS011;11402;51.374;6.594;2022-12-29T14:16:45;8.82;;;1.98;;
22470;SDS011;11402;51.374;6.594;2022-12-29T14:21:51;7.10;;;1.40;;
22470;SDS011;11402;51.374;6.594;2022-12-29T14:29:47;8.07;;;1.63;;
22470;SDS011;11402;51.374;6.594;2022-12-29T14:32:35;9.20;;;1.70;;
22470;SDS011;11402;51.374;6.594;2022-12-29T14:38:06;8.88;;;1.85;;
22470;SDS011;11402;51.374;6.594;2022-12-29T14:40:42;8.77;;;1.45;;
22470;SDS011;11402;51.374;6.594;2022-12-29T14:43:16;6.65;;;1.48;;
22470;SDS011;11402;51.374;6.594;2022-12-29T14:46:00;8.25;;;1.50;;
22470;SDS011;11402;51.374;6.594;2022-12-29T14:48:28;11.55;;;1.70;;
22470;SDS011;11402;51.374;6.594;2022-12-29T14:50:58;5.88;;;1.35;;
22470;SDS011;11402;51.374;6.594;2022-12-29T14:53:41;9.25;;;1.55;;
22470;SDS011;11402;51.374;6.594;2022-12-29T14:56:12;8.77;;;1.70;;
22470;SDS011;11402;51.374;6.594;2022-12-29T14:58:47;8.27;;;1.67;;
22470;SDS011;11402;51.374;6.594;2022-12-29T15:01:18;6.53;;;1.35;;
22470;SDS011;11402;51.374;6.594;2022-12-29T15:04:03;8.68;;;1.52;;
22470;SDS011;11402;51.374;6.594;2022-12-29T15:06:38;8.55;;;1.42;;
22470;SDS011;11402;51.374;6.594;2022-12-29T15:09:10;9.57;;;1.95;;
22470;SDS011;11402;51.374;6.594;2022-12-29T15:12:41;7.82;;;1.65;;
22470;SDS011;11402;51.374;6.594;2022-12-29T15:15:00;6.95;;;1.42;;
22470;SDS011;11402;51.374;6.594;2022-12-29T15:17:33;7.00;;;1.52;;
22470;SDS011;11402;51.374;6.594;2022-12-29T15:20:00;7.80;;;1.47;;
22470;SDS011;11402;51.374;6.594;2022-12-29T15:22:42;5.80;;;1.50;;
22470;SDS011;11402;51.374;6.594;2022-12-29T15:25:15;6.93;;;1.65;;
22470;SDS011;11402;51.374;6.594;2022-12-29T15:27:43;8.50;;;1.90;;
22470;SDS011;11402;51.374;6.594;2022-12-29T15:30:18;9.15;;;1.70;;
22470;SDS011;11402;51.374;6.594;2022-12-29T15:32:45;4.97;;;1.40;;
22470;SDS011;11402;51.374;6.594;2022-12-29T15:35:21;8.77;;;1.90;;
22470;SDS011;11402;51.374;6.594;2022-12-29T15:37:56;9.90;;;1.70;;
22470;SDS011;11402;51.374;6.594;2022-12-29T15:40:27;10.18;;;1.70;;
22470;SDS011;11402;51.374;6.594;2022-12-29T15:43:10;8.75;;;1.73;;
22470;SDS011;11402;51.374;6.594;2022-12-29T15:45:53;6.18;;;1.50;;
22470;SDS011;11402;51.374;6.594;2022-12-29T15:48:21;7.88;;;1.33;;
22470;SDS011;11402;51.374;6.594;2022-12-29T15:50:48;7.70;;;1.75;;
22470;SDS011;11402;51.374;6.594;2022-12-29T15:53:32;9.25;;;1.45;;
22470;SDS011;11402;51.374;6.594;2022-12-29T15:56:05;8.55;;;1.67;;
22470;SDS011;11402;51.374;6.594;2022-12-29T15:58:39;6.32;;;1.20;;
22470;SDS011;11402;51.374;6.594;2022-12-29T16:01:16;8.30;;;1.75;;
22470;SDS011;11402;51.374;6.594;2022-12-29T16:03:52;7.73;;;1.43;;
22470;SDS011;11402;51.374;6.594;2022-12-29T16:06:28;7.75;;;1.48;;
22470;SDS011;11402;51.374;6.594;2022-12-29T16:09:03;5.07;;;1.30;;
22470;SDS011;11402;51.374;6.594;2022-12-29T16:11:33;8.82;;;2.10;;
22470;SDS011;11402;51.374;6.594;2022-12-29T16:14:05;11.70;;;1.75;;
22470;SDS011;11402;51.374;6.594;2022-12-29T16:16:39;5.70;;;1.80;;
22470;SDS011;11402;51.374;6.594;2022-12-29T16:19:14;13.05;;;1.88;;
22470;SDS011;11402;51.374;6.594;2022-12-29T16:21:50;7.10;;;1.75;;
22470;SDS011;11402;51.374;6.594;2022-12-29T16:24:17;6.55;;;1.90;;
22470;SDS011;11402;51.374;6.594;2022-12-29T16:26:49;8.57;;;1.92;;
22470;SDS011;11402;51.374;6.594;2022-12-29T16:29:23;9.57;;;2.13;;
22470;SDS011;11402;51.374;6.594;2022-12-29T16:31:50;10.38;;;2.17;;
22470;SDS011;11402;51.374;6.594;2022-12-29T16:39:40;7.03;;;1.70;;
22470;SDS011;11402;51.374;6.594;2022-12-29T16:45:14;11.85;;;2.08;;
22470;SDS011;11402;51.374;6.594;2022-12-29T16:52:58;3.78;;;0.50;;
22470;SDS011;11402;51.374;6.594;2022-12-29T16:55:24;3.00;;;0.80;;
22470;SDS011;11402;51.374;6.594;2022-12-29T16:57:50;4.05;;;0.55;;
22470;SDS011;11402;51.374;6.594;2022-12-29T17:00:22;4.05;;;0.70;;
22470;SDS011;11402;51.374;6.594;2022-12-29T17:02:49;2.88;;;0.63;;
22470;SDS011;11402;51.374;6.594;2022-12-29T17:05:16;2.30;;;0.60;;